sensor_id;sensor_type;location;lat;lon;timestamp;P1;durP1;ratioP1;P2;durP2;ratioP2
15159;SDS011;7680;48.800;9.680;2022-08-19T00:00:24;18.30;;;16.92;;
15159;SDS011;7680;48.800;9.680;2022-08-19T00:02:58;20.02;;;18.48;;
15159;SDS011;7680;48.800;9.680;2022-08-19T00:05:31;19.35;;;17.95;;
15159;SDS011;7680;48.800;9.680;2022-08-19T00:08:06;19.90;;;18.17;;
15159;SDS011;7680;48.800;9.680;2022-08-19T00:10:39;20.60;;;18.90;;
15159;SDS011;7680;48.800;9.680;2022-08-19T00:13:13;19.85;;;18.30;;
15159;SDS011;7680;48.800;9.680;2022-08-19T00:15:46;19.05;;;17.58;;
15159;SDS011;7680;48.800;9.680;2022-08-19T00:18:19;20.58;;;19.08;;
15159;SDS011;7680;48.800;9.680;2022-08-19T00:20:53;20.90;;;19.30;;
15159;SDS011;7680;48.800;9.680;2022-08-19T00:23:27;20.67;;;19.17;;
15159;SDS011;7680;48.800;9.680;2022-08-19T00:26:01;20.95;;;19.45;;
15159;SDS011;7680;48.800;9.680;2022-08-19T00:28:35;19.08;;;17.58;;
15159;SDS011;7680;48.800;9.680;2022-08-19T00:31:09;19.25;;;17.75;;
15159;SDS011;7680;48.800;9.680;2022-08-19T00:33:43;19.70;;;18.20;;
15159;SDS011;7680;48.800;9.680;2022-08-19T00:36:16;20.58;;;18.67;;
15159;SDS011;7680;48.800;9.680;2022-08-19T00:38:53;19.45;;;17.95;;
15159;SDS011;7680;48.800;9.680;2022-08-19T00:41:26;18.15;;;16.75;;
15159;SDS011;7680;48.800;9.680;2022-08-19T00:44:01;20.77;;;19.17;;
15159;SDS011;7680;48.800;9.680;2022-08-19T00:46:37;19.17;;;17.67;;
15159;SDS011;7680;48.800;9.680;2022-08-19T00:49:14;20.17;;;18.67;;
15159;SDS011;7680;48.800;9.680;2022-08-19T00:51:53;19.17;;;17.67;;
15159;SDS011;7680;48.800;9.680;2022-08-19T00:54:32;18.55;;;17.15;;
15159;SDS011;7680;48.800;9.680;2022-08-19T00:57:06;18.65;;;17.27;;
15159;SDS011;7680;48.800;9.680;2022-08-19T00:59:44;18.80;;;17.33;;
15159;SDS011;7680;48.800;9.680;2022-08-19T01:02:33;17.92;;;16.52;;
15159;SDS011;7680;48.800;9.680;2022-08-19T01:05:07;19.52;;;17.92;;
15159;SDS011;7680;48.800;9.680;2022-08-19T01:07:44;17.33;;;16.02;;
15159;SDS011;7680;48.800;9.680;2022-08-19T01:10:20;19.13;;;17.65;;
15159;SDS011;7680;48.800;9.680;2022-08-19T01:12:57;18.63;;;17.23;;
15159;SDS011;7680;48.800;9.680;2022-08-19T01:15:33;18.05;;;16.65;;
15159;SDS011;7680;48.800;9.680;2022-08-19T01:18:13;19.08;;;17.70;;
15159;SDS011;7680;48.800;9.680;2022-08-19T01:20:49;18.95;;;17.48;;
15159;SDS011;7680;48.800;9.680;2022-08-19T01:23:25;18.52;;;17.13;;
15159;SDS011;7680;48.800;9.680;2022-08-19T01:26:14;18.05;;;16.65;;
15159;SDS011;7680;48.800;9.680;2022-08-19T01:28:54;18.48;;;17.05;;
15159;SDS011;7680;48.800;9.680;2022-08-19T01:31:32;18.98;;;17.40;;
15159;SDS011;7680;48.800;9.680;2022-08-19T01:34:05;16.95;;;15.65;;
15159;SDS011;7680;48.800;9.680;2022-08-19T01:36:40;18.55;;;17.13;;
15159;SDS011;7680;48.800;9.680;2022-08-19T01:39:18;18.45;;;17.05;;
15159;SDS011;7680;48.800;9.680;2022-08-19T01:41:54;17.50;;;16.20;;
15159;SDS011;7680;48.800;9.680;2022-08-19T01:44:27;17.52;;;16.15;;
15159;SDS011;7680;48.800;9.680;2022-08-19T01:47:00;19.77;;;18.15;;
15159;SDS011;7680;48.800;9.680;2022-08-19T01:49:34;18.10;;;16.80;;
15159;SDS011;7680;48.800;9.680;2022-08-19T01:52:09;18.35;;;16.95;;
15159;SDS011;7680;48.800;9.680;2022-08-19T01:54:43;17.17;;;15.77;;
15159;SDS011;7680;48.800;9.680;2022-08-19T01:57:16;18.75;;;17.30;;
15159;SDS011;7680;48.800;9.680;2022-08-19T01:59:49;19.25;;;17.65;;
15159;SDS011;7680;48.800;9.680;2022-08-19T02:02:23;19.85;;;18.45;;
15159;SDS011;7680;48.800;9.680;2022-08-19T02:04:56;20.02;;;18.38;;
15159;SDS011;7680;48.800;9.680;2022-08-19T02:07:29;18.92;;;17.50;;
15159;SDS011;7680;48.800;9.680;2022-08-19T02:10:06;18.75;;;17.30;;
15159;SDS011;7680;48.800;9.680;2022-08-19T02:12:46;19.10;;;17.67;;
15159;SDS011;7680;48.800;9.680;2022-08-19T02:15:20;18.92;;;17.55;;
15159;SDS011;7680;48.800;9.680;2022-08-19T02:17:54;19.27;;;17.75;;
15159;SDS011;7680;48.800;9.680;2022-08-19T02:20:27;19.35;;;17.77;;
15159;SDS011;7680;48.800;9.680;2022-08-19T02:23:00;19.40;;;17.90;;
15159;SDS011;7680;48.800;9.680;2022-08-19T02:25:34;19.58;;;18.02;;
15159;SDS011;7680;48.800;9.680;2022-08-19T02:28:08;20.02;;;18.52;;
15159;SDS011;7680;48.800;9.680;2022-08-19T02:30:41;19.77;;;18.27;;
15159;SDS011;7680;48.800;9.680;2022-08-19T02:33:14;19.70;;;18.13;;
15159;SDS011;7680;48.800;9.680;2022-08-19T02:35:48;18.33;;;16.92;;
15159;SDS011;7680;48.800;9.680;2022-08-19T02:38:21;20.13;;;18.63;;
15159;SDS011;7680;48.800;9.680;2022-08-19T02:40:58;20.17;;;18.48;;
15159;SDS011;7680;48.800;9.680;2022-08-19T02:43:34;18.90;;;17.45;;
15159;SDS011;7680;48.800;9.680;2022-08-19T02:46:15;20.58;;;18.95;;
15159;SDS011;7680;48.800;9.680;2022-08-19T02:48:53;20.20;;;18.65;;
15159;SDS011;7680;48.800;9.680;2022-08-19T02:51:29;19.52;;;18.02;;
15159;SDS011;7680;48.800;9.680;2022-08-19T02:54:06;20.23;;;18.63;;
15159;SDS011;7680;48.800;9.680;2022-08-19T02:56:43;20.30;;;18.77;;
15159;SDS011;7680;48.800;9.680;2022-08-19T02:59:17;21.65;;;19.85;;
15159;SDS011;7680;48.800;9.680;2022-08-19T03:01:53;20.02;;;18.52;;
15159;SDS011;7680;48.800;9.680;2022-08-19T03:04:26;19.58;;;18.13;;
15159;SDS011;7680;48.800;9.680;2022-08-19T03:07:00;20.02;;;18.33;;
15159;SDS011;7680;48.800;9.680;2022-08-19T03:09:41;20.20;;;18.45;;
15159;SDS011;7680;48.800;9.680;2022-08-19T03:12:16;19.95;;;18.33;;
15159;SDS011;7680;48.800;9.680;2022-08-19T03:14:49;19.20;;;17.60;;
15159;SDS011;7680;48.800;9.680;2022-08-19T03:17:23;19.55;;;18.02;;
15159;SDS011;7680;48.800;9.680;2022-08-19T03:19:57;19.95;;;18.38;;
15159;SDS011;7680;48.800;9.680;2022-08-19T03:22:30;19.90;;;18.40;;
15159;SDS011;7680;48.800;9.680;2022-08-19T03:25:03;20.85;;;19.05;;
15159;SDS011;7680;48.800;9.680;2022-08-19T03:27:39;20.70;;;18.95;;
15159;SDS011;7680;48.800;9.680;2022-08-19T03:30:12;21.40;;;19.70;;
15159;SDS011;7680;48.800;9.680;2022-08-19T03:32:53;20.83;;;19.13;;
15159;SDS011;7680;48.800;9.680;2022-08-19T03:35:27;21.48;;;19.67;;
15159;SDS011;7680;48.800;9.680;2022-08-19T03:38:00;20.45;;;18.75;;
15159;SDS011;7680;48.800;9.680;2022-08-19T03:40:36;20.15;;;18.55;;
15159;SDS011;7680;48.800;9.680;2022-08-19T03:43:13;21.08;;;19.35;;
15159;SDS011;7680;48.800;9.680;2022-08-19T03:45:58;20.02;;;18.48;;
15159;SDS011;7680;48.800;9.680;2022-08-19T03:48:33;20.85;;;19.08;;
15159;SDS011;7680;48.800;9.680;2022-08-19T03:51:08;19.20;;;17.77;;
15159;SDS011;7680;48.800;9.680;2022-08-19T03:54:01;21.30;;;19.60;;
15159;SDS011;7680;48.800;9.680;2022-08-19T03:56:38;21.42;;;19.67;;
15159;SDS011;7680;48.800;9.680;2022-08-19T03:59:22;21.52;;;19.83;;
15159;SDS011;7680;48.800;9.680;2022-08-19T04:01:59;21.58;;;19.88;;
15159;SDS011;7680;48.800;9.680;2022-08-19T04:04:35;21.48;;;19.67;;
15159;SDS011;7680;48.800;9.680;2022-08-19T04:07:09;21.90;;;19.92;;
15159;SDS011;7680;48.800;9.680;2022-08-19T04:09:47;21.33;;;19.58;;
15159;SDS011;7680;48.800;9.680;2022-08-19T04:12:21;21.75;;;19.95;;
15159;SDS011;7680;48.800;9.680;2022-08-19T04:14:56;22.35;;;20.45;;
15159;SDS011;7680;48.800;9.680;2022-08-19T04:17:29;22.60;;;20.38;;
15159;SDS011;7680;48.800;9.680;2022-08-19T04:20:03;21.33;;;19.60;;
15159;SDS011;7680;48.800;9.680;2022-08-19T04:22:37;22.25;;;20.42;;
15159;SDS011;7680;48.800;9.680;2022-08-19T04:25:10;23.30;;;21.35;;
15159;SDS011;7680;48.800;9.680;2022-08-19T04:27:44;23.02;;;21.13;;
15159;SDS011;7680;48.800;9.680;2022-08-19T04:30:19;22.27;;;20.38;;
15159;SDS011;7680;48.800;9.680;2022-08-19T04:32:53;23.13;;;21.13;;
15159;SDS011;7680;48.800;9.680;2022-08-19T04:35:26;22.92;;;21.02;;
15159;SDS011;7680;48.800;9.680;2022-08-19T04:37:59;24.65;;;22.48;;
15159;SDS011;7680;48.800;9.680;2022-08-19T04:40:33;24.92;;;22.75;;
15159;SDS011;7680;48.800;9.680;2022-08-19T04:43:24;25.75;;;23.08;;
15159;SDS011;7680;48.800;9.680;2022-08-19T04:45:59;25.38;;;23.17;;
15159;SDS011;7680;48.800;9.680;2022-08-19T04:48:38;24.05;;;21.90;;
15159;SDS011;7680;48.800;9.680;2022-08-19T04:51:19;24.40;;;22.27;;
15159;SDS011;7680;48.800;9.680;2022-08-19T04:53:52;21.40;;;19.58;;
15159;SDS011;7680;48.800;9.680;2022-08-19T04:56:26;23.55;;;21.45;;
15159;SDS011;7680;48.800;9.680;2022-08-19T04:58:59;21.90;;;20.00;;
15159;SDS011;7680;48.800;9.680;2022-08-19T05:01:36;23.40;;;21.45;;
15159;SDS011;7680;48.800;9.680;2022-08-19T05:04:09;23.45;;;21.42;;
15159;SDS011;7680;48.800;9.680;2022-08-19T05:06:44;21.52;;;19.83;;
15159;SDS011;7680;48.800;9.680;2022-08-19T05:09:18;22.98;;;21.00;;
15159;SDS011;7680;48.800;9.680;2022-08-19T05:11:52;21.88;;;20.17;;
15159;SDS011;7680;48.800;9.680;2022-08-19T05:14:25;22.15;;;20.25;;
15159;SDS011;7680;48.800;9.680;2022-08-19T05:17:01;21.92;;;20.02;;
15159;SDS011;7680;48.800;9.680;2022-08-19T05:19:55;21.00;;;19.30;;
15159;SDS011;7680;48.800;9.680;2022-08-19T05:22:46;22.83;;;20.92;;
15159;SDS011;7680;48.800;9.680;2022-08-19T05:25:20;22.15;;;20.25;;
15159;SDS011;7680;48.800;9.680;2022-08-19T05:27:55;21.30;;;19.63;;
15159;SDS011;7680;48.800;9.680;2022-08-19T05:30:28;22.88;;;20.98;;
15159;SDS011;7680;48.800;9.680;2022-08-19T05:33:18;23.90;;;21.80;;
15159;SDS011;7680;48.800;9.680;2022-08-19T05:35:52;23.38;;;21.38;;
15159;SDS011;7680;48.800;9.680;2022-08-19T05:38:27;23.40;;;21.42;;
15159;SDS011;7680;48.800;9.680;2022-08-19T05:41:01;23.00;;;21.00;;
15159;SDS011;7680;48.800;9.680;2022-08-19T05:43:39;23.25;;;21.23;;
15159;SDS011;7680;48.800;9.680;2022-08-19T05:46:16;23.52;;;21.38;;
15159;SDS011;7680;48.800;9.680;2022-08-19T05:48:59;24.65;;;22.45;;
15159;SDS011;7680;48.800;9.680;2022-08-19T05:51:33;24.88;;;22.67;;
15159;SDS011;7680;48.800;9.680;2022-08-19T05:54:09;27.38;;;24.98;;
15159;SDS011;7680;48.800;9.680;2022-08-19T05:56:44;27.50;;;24.98;;
15159;SDS011;7680;48.800;9.680;2022-08-19T05:59:19;28.38;;;25.77;;
15159;SDS011;7680;48.800;9.680;2022-08-19T06:01:55;28.83;;;26.08;;
15159;SDS011;7680;48.800;9.680;2022-08-19T06:04:29;27.33;;;24.83;;
15159;SDS011;7680;48.800;9.680;2022-08-19T06:07:02;25.98;;;23.58;;
15159;SDS011;7680;48.800;9.680;2022-08-19T06:09:43;27.77;;;25.20;;
15159;SDS011;7680;48.800;9.680;2022-08-19T06:12:32;28.23;;;25.70;;
15159;SDS011;7680;48.800;9.680;2022-08-19T06:15:07;28.67;;;25.98;;
15159;SDS011;7680;48.800;9.680;2022-08-19T06:17:43;27.13;;;24.52;;
15159;SDS011;7680;48.800;9.680;2022-08-19T06:20:17;29.20;;;26.33;;
15159;SDS011;7680;48.800;9.680;2022-08-19T06:23:11;30.20;;;27.38;;
15159;SDS011;7680;48.800;9.680;2022-08-19T06:25:47;30.58;;;27.65;;
15159;SDS011;7680;48.800;9.680;2022-08-19T06:28:20;28.73;;;25.92;;
15159;SDS011;7680;48.800;9.680;2022-08-19T06:30:54;29.80;;;27.10;;
15159;SDS011;7680;48.800;9.680;2022-08-19T06:33:27;29.23;;;26.25;;
15159;SDS011;7680;48.800;9.680;2022-08-19T06:36:03;28.73;;;26.13;;
15159;SDS011;7680;48.800;9.680;2022-08-19T06:38:37;30.08;;;27.17;;
15159;SDS011;7680;48.800;9.680;2022-08-19T06:41:10;30.35;;;27.42;;
15159;SDS011;7680;48.800;9.680;2022-08-19T06:43:43;27.58;;;24.85;;
15159;SDS011;7680;48.800;9.680;2022-08-19T06:46:16;31.42;;;28.33;;
15159;SDS011;7680;48.800;9.680;2022-08-19T06:48:51;30.77;;;27.77;;
15159;SDS011;7680;48.800;9.680;2022-08-19T06:51:26;29.05;;;26.05;;
15159;SDS011;7680;48.800;9.680;2022-08-19T06:54:02;31.95;;;28.77;;
15159;SDS011;7680;48.800;9.680;2022-08-19T06:56:49;31.20;;;28.20;;
15159;SDS011;7680;48.800;9.680;2022-08-19T06:59:23;32.33;;;29.02;;
15159;SDS011;7680;48.800;9.680;2022-08-19T07:01:59;32.20;;;28.95;;
15159;SDS011;7680;48.800;9.680;2022-08-19T07:04:36;32.40;;;28.80;;
15159;SDS011;7680;48.800;9.680;2022-08-19T07:07:14;32.17;;;28.98;;
15159;SDS011;7680;48.800;9.680;2022-08-19T07:09:51;34.60;;;31.10;;
15159;SDS011;7680;48.800;9.680;2022-08-19T07:12:32;34.20;;;30.50;;
15159;SDS011;7680;48.800;9.680;2022-08-19T07:15:08;34.40;;;30.40;;
15159;SDS011;7680;48.800;9.680;2022-08-19T07:17:43;33.53;;;29.63;;
15159;SDS011;7680;48.800;9.680;2022-08-19T07:20:20;32.13;;;28.65;;
15159;SDS011;7680;48.800;9.680;2022-08-19T07:23:00;34.13;;;30.48;;
15159;SDS011;7680;48.800;9.680;2022-08-19T07:25:37;33.90;;;30.40;;
15159;SDS011;7680;48.800;9.680;2022-08-19T07:28:11;32.67;;;29.38;;
15159;SDS011;7680;48.800;9.680;2022-08-19T07:30:55;34.85;;;31.02;;
15159;SDS011;7680;48.800;9.680;2022-08-19T07:33:28;33.85;;;30.38;;
15159;SDS011;7680;48.800;9.680;2022-08-19T07:36:04;34.30;;;30.85;;
15159;SDS011;7680;48.800;9.680;2022-08-19T07:38:46;34.78;;;31.27;;
15159;SDS011;7680;48.800;9.680;2022-08-19T07:41:21;35.25;;;31.50;;
15159;SDS011;7680;48.800;9.680;2022-08-19T07:43:57;36.17;;;32.20;;
15159;SDS011;7680;48.800;9.680;2022-08-19T07:46:35;35.25;;;31.55;;
15159;SDS011;7680;48.800;9.680;2022-08-19T07:49:12;31.75;;;28.63;;
15159;SDS011;7680;48.800;9.680;2022-08-19T07:51:51;36.10;;;32.38;;
15159;SDS011;7680;48.800;9.680;2022-08-19T07:54:29;36.80;;;32.85;;
15159;SDS011;7680;48.800;9.680;2022-08-19T07:57:05;34.63;;;30.88;;
15159;SDS011;7680;48.800;9.680;2022-08-19T07:59:39;35.47;;;31.88;;
15159;SDS011;7680;48.800;9.680;2022-08-19T08:02:12;36.42;;;32.50;;
15159;SDS011;7680;48.800;9.680;2022-08-19T08:04:45;36.13;;;32.30;;
15159;SDS011;7680;48.800;9.680;2022-08-19T08:07:36;31.63;;;28.38;;
15159;SDS011;7680;48.800;9.680;2022-08-19T08:10:28;34.22;;;30.25;;
15159;SDS011;7680;48.800;9.680;2022-08-19T08:13:01;35.28;;;31.52;;
15159;SDS011;7680;48.800;9.680;2022-08-19T08:15:40;37.42;;;33.30;;
15159;SDS011;7680;48.800;9.680;2022-08-19T08:18:15;36.40;;;32.58;;
15159;SDS011;7680;48.800;9.680;2022-08-19T08:20:49;36.55;;;32.80;;
15159;SDS011;7680;48.800;9.680;2022-08-19T08:23:23;38.35;;;34.17;;
15159;SDS011;7680;48.800;9.680;2022-08-19T08:25:59;36.88;;;33.17;;
15159;SDS011;7680;48.800;9.680;2022-08-19T08:28:33;38.45;;;34.30;;
15159;SDS011;7680;48.800;9.680;2022-08-19T08:31:06;36.72;;;32.83;;
15159;SDS011;7680;48.800;9.680;2022-08-19T08:33:40;39.00;;;34.92;;
15159;SDS011;7680;48.800;9.680;2022-08-19T08:36:14;38.42;;;34.33;;
15159;SDS011;7680;48.800;9.680;2022-08-19T08:38:47;38.42;;;34.25;;
15159;SDS011;7680;48.800;9.680;2022-08-19T08:41:27;35.42;;;31.83;;
15159;SDS011;7680;48.800;9.680;2022-08-19T08:44:11;37.10;;;33.30;;
15159;SDS011;7680;48.800;9.680;2022-08-19T08:46:53;38.83;;;34.67;;
15159;SDS011;7680;48.800;9.680;2022-08-19T08:49:31;36.25;;;32.55;;
15159;SDS011;7680;48.800;9.680;2022-08-19T08:52:15;38.55;;;34.47;;
15159;SDS011;7680;48.800;9.680;2022-08-19T08:54:54;40.00;;;35.70;;
15159;SDS011;7680;48.800;9.680;2022-08-19T08:57:44;38.28;;;34.17;;
15159;SDS011;7680;48.800;9.680;2022-08-19T09:00:27;40.28;;;36.17;;
15159;SDS011;7680;48.800;9.680;2022-08-19T09:03:06;39.13;;;35.00;;
15159;SDS011;7680;48.800;9.680;2022-08-19T09:05:50;37.13;;;33.42;;
15159;SDS011;7680;48.800;9.680;2022-08-19T09:08:38;38.78;;;34.75;;
15159;SDS011;7680;48.800;9.680;2022-08-19T09:11:23;39.13;;;35.13;;
15159;SDS011;7680;48.800;9.680;2022-08-19T09:14:18;38.90;;;34.75;;
15159;SDS011;7680;48.800;9.680;2022-08-19T09:17:23;37.50;;;33.67;;
15159;SDS011;7680;48.800;9.680;2022-08-19T09:20:03;40.25;;;36.15;;
15159;SDS011;7680;48.800;9.680;2022-08-19T09:22:45;39.50;;;35.40;;
15159;SDS011;7680;48.800;9.680;2022-08-19T09:25:21;41.17;;;36.85;;
15159;SDS011;7680;48.800;9.680;2022-08-19T09:28:00;39.25;;;35.15;;
15159;SDS011;7680;48.800;9.680;2022-08-19T09:30:44;39.45;;;35.35;;
15159;SDS011;7680;48.800;9.680;2022-08-19T09:33:17;40.42;;;36.22;;
15159;SDS011;7680;48.800;9.680;2022-08-19T09:36:00;41.10;;;36.92;;
15159;SDS011;7680;48.800;9.680;2022-08-19T09:38:39;39.50;;;35.33;;
15159;SDS011;7680;48.800;9.680;2022-08-19T09:41:14;39.53;;;35.30;;
15159;SDS011;7680;48.800;9.680;2022-08-19T09:43:51;43.20;;;37.20;;
15159;SDS011;7680;48.800;9.680;2022-08-19T09:46:28;41.75;;;37.22;;
15159;SDS011;7680;48.800;9.680;2022-08-19T09:49:02;40.85;;;36.45;;
15159;SDS011;7680;48.800;9.680;2022-08-19T09:51:37;40.40;;;36.10;;
15159;SDS011;7680;48.800;9.680;2022-08-19T09:54:11;39.53;;;35.40;;
15159;SDS011;7680;48.800;9.680;2022-08-19T09:56:52;39.83;;;35.58;;
15159;SDS011;7680;48.800;9.680;2022-08-19T09:59:26;38.05;;;34.20;;
15159;SDS011;7680;48.800;9.680;2022-08-19T10:02:05;38.00;;;34.03;;
15159;SDS011;7680;48.800;9.680;2022-08-19T10:04:41;37.40;;;33.55;;
15159;SDS011;7680;48.800;9.680;2022-08-19T10:07:32;39.38;;;34.97;;
15159;SDS011;7680;48.800;9.680;2022-08-19T10:10:07;39.03;;;35.13;;
15159;SDS011;7680;48.800;9.680;2022-08-19T10:12:42;36.67;;;32.85;;
15159;SDS011;7680;48.800;9.680;2022-08-19T10:15:19;36.92;;;33.13;;
15159;SDS011;7680;48.800;9.680;2022-08-19T10:18:01;36.70;;;32.85;;
15159;SDS011;7680;48.800;9.680;2022-08-19T10:20:35;34.78;;;31.30;;
15159;SDS011;7680;48.800;9.680;2022-08-19T10:23:08;35.70;;;32.20;;
15159;SDS011;7680;48.800;9.680;2022-08-19T10:25:41;32.22;;;28.90;;
15159;SDS011;7680;48.800;9.680;2022-08-19T10:28:15;31.63;;;28.52;;
15159;SDS011;7680;48.800;9.680;2022-08-19T10:30:49;31.58;;;28.58;;
15159;SDS011;7680;48.800;9.680;2022-08-19T10:33:24;28.02;;;25.38;;
15159;SDS011;7680;48.800;9.680;2022-08-19T10:36:19;31.92;;;28.73;;
15159;SDS011;7680;48.800;9.680;2022-08-19T10:38:56;29.85;;;26.98;;
15159;SDS011;7680;48.800;9.680;2022-08-19T10:41:33;28.85;;;26.08;;
15159;SDS011;7680;48.800;9.680;2022-08-19T10:44:09;29.65;;;26.65;;
15159;SDS011;7680;48.800;9.680;2022-08-19T10:46:44;28.98;;;26.10;;
15159;SDS011;7680;48.800;9.680;2022-08-19T10:49:21;28.67;;;25.88;;
15159;SDS011;7680;48.800;9.680;2022-08-19T10:51:55;28.95;;;26.08;;
15159;SDS011;7680;48.800;9.680;2022-08-19T10:54:50;28.13;;;25.45;;
15159;SDS011;7680;48.800;9.680;2022-08-19T10:57:41;28.77;;;25.90;;
15159;SDS011;7680;48.800;9.680;2022-08-19T11:00:34;28.52;;;25.73;;
15159;SDS011;7680;48.800;9.680;2022-08-19T11:03:08;25.90;;;23.45;;
15159;SDS011;7680;48.800;9.680;2022-08-19T11:05:42;28.17;;;25.23;;
15159;SDS011;7680;48.800;9.680;2022-08-19T11:08:15;27.02;;;24.33;;
15159;SDS011;7680;48.800;9.680;2022-08-19T11:10:54;27.02;;;24.45;;
15159;SDS011;7680;48.800;9.680;2022-08-19T11:13:29;27.73;;;25.08;;
15159;SDS011;7680;48.800;9.680;2022-08-19T11:16:07;29.58;;;26.48;;
15159;SDS011;7680;48.800;9.680;2022-08-19T11:18:45;29.30;;;26.20;;
15159;SDS011;7680;48.800;9.680;2022-08-19T11:21:23;29.23;;;26.25;;
15159;SDS011;7680;48.800;9.680;2022-08-19T11:24:00;29.50;;;26.70;;
15159;SDS011;7680;48.800;9.680;2022-08-19T11:26:38;28.77;;;25.77;;
15159;SDS011;7680;48.800;9.680;2022-08-19T11:29:13;28.25;;;25.48;;
15159;SDS011;7680;48.800;9.680;2022-08-19T11:31:47;29.33;;;26.27;;
15159;SDS011;7680;48.800;9.680;2022-08-19T11:34:22;29.65;;;26.88;;
15159;SDS011;7680;48.800;9.680;2022-08-19T11:37:01;29.42;;;26.38;;
15159;SDS011;7680;48.800;9.680;2022-08-19T11:39:35;31.60;;;28.35;;
15159;SDS011;7680;48.800;9.680;2022-08-19T11:42:10;33.45;;;30.05;;
15159;SDS011;7680;48.800;9.680;2022-08-19T11:45:00;33.10;;;29.60;;
15159;SDS011;7680;48.800;9.680;2022-08-19T11:47:34;37.33;;;33.53;;
15159;SDS011;7680;48.800;9.680;2022-08-19T11:50:07;36.53;;;32.70;;
15159;SDS011;7680;48.800;9.680;2022-08-19T11:52:42;36.72;;;32.97;;
15159;SDS011;7680;48.800;9.680;2022-08-19T11:55:16;38.90;;;34.92;;
15159;SDS011;7680;48.800;9.680;2022-08-19T11:57:50;36.65;;;32.72;;
15159;SDS011;7680;48.800;9.680;2022-08-19T12:00:24;40.70;;;36.42;;
15159;SDS011;7680;48.800;9.680;2022-08-19T12:02:57;40.97;;;36.58;;
15159;SDS011;7680;48.800;9.680;2022-08-19T12:05:30;42.75;;;37.90;;
15159;SDS011;7680;48.800;9.680;2022-08-19T12:08:06;38.90;;;34.67;;
15159;SDS011;7680;48.800;9.680;2022-08-19T12:10:40;41.33;;;36.33;;
15159;SDS011;7680;48.800;9.680;2022-08-19T12:13:14;43.17;;;38.58;;
15159;SDS011;7680;48.800;9.680;2022-08-19T12:15:49;43.05;;;36.92;;
15159;SDS011;7680;48.800;9.680;2022-08-19T12:18:24;40.15;;;35.90;;
15159;SDS011;7680;48.800;9.680;2022-08-19T12:20:57;37.33;;;33.47;;
15159;SDS011;7680;48.800;9.680;2022-08-19T12:23:32;46.28;;;39.33;;
15159;SDS011;7680;48.800;9.680;2022-08-19T12:26:08;41.30;;;36.92;;
15159;SDS011;7680;48.800;9.680;2022-08-19T12:28:42;42.20;;;37.70;;
15159;SDS011;7680;48.800;9.680;2022-08-19T12:31:17;45.20;;;39.65;;
15159;SDS011;7680;48.800;9.680;2022-08-19T12:33:50;38.83;;;34.60;;
15159;SDS011;7680;48.800;9.680;2022-08-19T12:36:24;44.38;;;38.88;;
15159;SDS011;7680;48.800;9.680;2022-08-19T12:38:59;49.25;;;40.65;;
15159;SDS011;7680;48.800;9.680;2022-08-19T12:41:32;45.20;;;39.97;;
15159;SDS011;7680;48.800;9.680;2022-08-19T12:44:13;49.40;;;41.95;;
15159;SDS011;7680;48.800;9.680;2022-08-19T12:46:49;53.13;;;43.15;;
15159;SDS011;7680;48.800;9.680;2022-08-19T12:49:24;46.25;;;39.72;;
15159;SDS011;7680;48.800;9.680;2022-08-19T12:52:17;46.13;;;37.42;;
15159;SDS011;7680;48.800;9.680;2022-08-19T12:54:55;48.38;;;40.90;;
15159;SDS011;7680;48.800;9.680;2022-08-19T12:57:29;49.65;;;40.28;;
15159;SDS011;7680;48.800;9.680;2022-08-19T13:00:05;57.45;;;44.00;;
15159;SDS011;7680;48.800;9.680;2022-08-19T13:02:43;57.10;;;45.33;;
15159;SDS011;7680;48.800;9.680;2022-08-19T13:05:19;49.30;;;40.92;;
15159;SDS011;7680;48.800;9.680;2022-08-19T13:07:55;55.00;;;44.67;;
15159;SDS011;7680;48.800;9.680;2022-08-19T13:10:33;46.58;;;40.80;;
15159;SDS011;7680;48.800;9.680;2022-08-19T13:13:08;52.17;;;42.40;;
15159;SDS011;7680;48.800;9.680;2022-08-19T13:15:42;59.55;;;43.97;;
15159;SDS011;7680;48.800;9.680;2022-08-19T13:18:16;57.63;;;43.30;;
15159;SDS011;7680;48.800;9.680;2022-08-19T13:20:49;60.85;;;47.33;;
15159;SDS011;7680;48.800;9.680;2022-08-19T13:23:23;61.60;;;47.80;;
15159;SDS011;7680;48.800;9.680;2022-08-19T13:25:58;60.90;;;45.97;;
15159;SDS011;7680;48.800;9.680;2022-08-19T13:28:34;63.00;;;48.13;;
15159;SDS011;7680;48.800;9.680;2022-08-19T13:31:25;60.33;;;46.38;;
15159;SDS011;7680;48.800;9.680;2022-08-19T13:34:19;64.20;;;47.17;;
15159;SDS011;7680;48.800;9.680;2022-08-19T13:37:01;56.80;;;42.88;;
15159;SDS011;7680;48.800;9.680;2022-08-19T13:39:36;62.22;;;46.40;;
15159;SDS011;7680;48.800;9.680;2022-08-19T13:42:11;67.90;;;48.10;;
15159;SDS011;7680;48.800;9.680;2022-08-19T13:44:45;61.55;;;46.42;;
15159;SDS011;7680;48.800;9.680;2022-08-19T13:47:18;63.17;;;46.53;;
15159;SDS011;7680;48.800;9.680;2022-08-19T13:49:52;68.90;;;48.85;;
15159;SDS011;7680;48.800;9.680;2022-08-19T13:52:25;57.38;;;44.05;;
15159;SDS011;7680;48.800;9.680;2022-08-19T13:54:58;49.50;;;39.17;;
15159;SDS011;7680;48.800;9.680;2022-08-19T13:57:33;55.42;;;43.30;;
15159;SDS011;7680;48.800;9.680;2022-08-19T14:00:08;58.83;;;45.13;;
15159;SDS011;7680;48.800;9.680;2022-08-19T14:02:45;58.40;;;44.65;;
15159;SDS011;7680;48.800;9.680;2022-08-19T14:05:19;61.97;;;45.10;;
15159;SDS011;7680;48.800;9.680;2022-08-19T14:07:53;47.97;;;39.88;;
15159;SDS011;7680;48.800;9.680;2022-08-19T14:10:27;51.75;;;41.85;;
15159;SDS011;7680;48.800;9.680;2022-08-19T14:13:03;56.17;;;42.80;;
15159;SDS011;7680;48.800;9.680;2022-08-19T14:15:37;60.25;;;43.95;;
15159;SDS011;7680;48.800;9.680;2022-08-19T14:18:10;50.15;;;39.03;;
15159;SDS011;7680;48.800;9.680;2022-08-19T14:20:44;47.03;;;39.10;;
15159;SDS011;7680;48.800;9.680;2022-08-19T14:23:18;41.60;;;35.95;;
15159;SDS011;7680;48.800;9.680;2022-08-19T14:25:51;38.75;;;34.40;;
15159;SDS011;7680;48.800;9.680;2022-08-19T14:28:34;40.13;;;35.10;;
15159;SDS011;7680;48.800;9.680;2022-08-19T14:31:08;38.25;;;34.10;;
15159;SDS011;7680;48.800;9.680;2022-08-19T14:33:41;39.78;;;33.28;;
15159;SDS011;7680;48.800;9.680;2022-08-19T14:36:14;41.75;;;36.05;;
15159;SDS011;7680;48.800;9.680;2022-08-19T14:38:48;39.22;;;33.95;;
15159;SDS011;7680;48.800;9.680;2022-08-19T14:41:22;37.13;;;32.90;;
15159;SDS011;7680;48.800;9.680;2022-08-19T14:43:57;36.60;;;32.72;;
15159;SDS011;7680;48.800;9.680;2022-08-19T14:46:31;37.75;;;33.65;;
15159;SDS011;7680;48.800;9.680;2022-08-19T14:49:04;36.95;;;33.03;;
15159;SDS011;7680;48.800;9.680;2022-08-19T14:51:39;37.20;;;33.05;;
15159;SDS011;7680;48.800;9.680;2022-08-19T14:54:12;33.30;;;29.83;;
15159;SDS011;7680;48.800;9.680;2022-08-19T14:56:46;35.42;;;31.63;;
15159;SDS011;7680;48.800;9.680;2022-08-19T14:59:21;35.05;;;31.23;;
15159;SDS011;7680;48.800;9.680;2022-08-19T15:01:54;34.63;;;30.92;;
15159;SDS011;7680;48.800;9.680;2022-08-19T15:04:27;35.22;;;31.42;;
15159;SDS011;7680;48.800;9.680;2022-08-19T15:07:04;35.78;;;31.98;;
15159;SDS011;7680;48.800;9.680;2022-08-19T15:09:37;32.08;;;28.83;;
15159;SDS011;7680;48.800;9.680;2022-08-19T15:12:10;32.97;;;29.52;;
15159;SDS011;7680;48.800;9.680;2022-08-19T15:14:53;30.05;;;27.20;;
15159;SDS011;7680;48.800;9.680;2022-08-19T15:17:27;28.95;;;26.25;;
15159;SDS011;7680;48.800;9.680;2022-08-19T15:20:16;31.25;;;28.10;;
15159;SDS011;7680;48.800;9.680;2022-08-19T15:22:53;30.42;;;27.33;;
15159;SDS011;7680;48.800;9.680;2022-08-19T15:25:27;30.45;;;27.20;;
15159;SDS011;7680;48.800;9.680;2022-08-19T15:28:00;31.13;;;28.08;;